Terminal Aerodrome Forecast
Issued by NWS

Home | Current Version | Previous Version | Text Only | Print | Product List | Glossary On
Versions: 1 2 3 4 5 6 7 8 9 10 11 12 13 14 15 16 17 18 19 20 21 22 23 24
000
FTUS42 KMHX 050539
TAFISO
TAF
KISO 050539Z 0506/0606 VRB03KT 5SM BR BKN005
     FM051400 VRB04KT P6SM BKN009
     FM051600 VRB04KT 6SM SHRA BKN012
     FM052100 32009KT 6SM -SHRA BKN015
     FM060200 29006KT 6SM BR VCSH BKN015
      AMD LTD TO CLD VIS AND WIND=

USA.gov is the U.S. government's official web portal to all federal, state and local government web resources and services.